Time;durP1;ratioP1;P1;durP2;ratioP2;P2;SDS_P1;SDS_P2;PMS_P1;PMS_P2;Temp;Humidity;BMP_temperature;BMP_pressure;BME280_temperature;BME280_humidity;BME280_pressure;Samples;Min_cycle;Max_cycle;Signal;HPM_P1;HPM_P2
2021/12/13 00:00:11;;;;;;;6.05;5.32;;;6.80;55.60;;;;;;4959807;28;20226;-77
2021/12/13 00:02:42;;;;;;;9.27;4.43;;;6.80;55.90;;;;;;4944128;28;20206;-78
2021/12/13 00:05:14;;;;;;;8.32;5.72;;;6.80;55.80;;;;;;4940857;28;20283;-79
2021/12/13 00:07:52;;;;;;;5.30;4.40;;;6.80;56.00;;;;;;4957095;28;20230;-77
2021/12/13 00:10:21;;;;;;;6.00;5.25;;;6.80;55.80;;;;;;4958845;29;20197;-78
2021/12/13 00:12:51;;;;;;;9.38;4.75;;;6.80;55.70;;;;;;4940886;28;20252;-76
2021/12/13 00:15:26;;;;;;;8.50;5.20;;;6.80;56.00;;;;;;4940287;28;20219;-79
2021/12/13 00:17:54;;;;;;;5.25;4.70;;;6.80;56.20;;;;;;4944179;29;20320;-82
2021/12/13 00:20:28;;;;;;;6.32;5.43;;;6.80;56.20;;;;;;4943852;29;20218;-82
2021/12/13 00:23:05;;;;;;;5.78;4.82;;;6.80;56.30;;;;;;4946209;29;20207;-81
2021/12/13 00:25:32;;;;;;;6.38;5.00;;;6.80;56.40;;;;;;4954351;29;20230;-81
2021/12/13 00:28:05;;;;;;;8.30;5.82;;;6.80;56.10;;;;;;4953443;29;20230;-82
2021/12/13 00:30:38;;;;;;;7.40;5.38;;;6.80;56.40;;;;;;4955632;29;20206;-78
2021/12/13 00:33:16;;;;;;;7.10;4.97;;;6.80;56.30;;;;;;4953160;28;20229;-82
2021/12/13 00:35:48;;;;;;;6.28;4.35;;;6.80;55.90;;;;;;4947004;29;20234;-80
2021/12/13 00:38:20;;;;;;;8.02;5.43;;;6.90;56.10;;;;;;4947023;29;20226;-80
2021/12/13 00:40:52;;;;;;;10.85;6.13;;;6.80;56.60;;;;;;4945365;29;20194;-83
2021/12/13 00:43:24;;;;;;;7.78;4.97;;;6.80;56.90;;;;;;4953829;29;20222;-82
2021/12/13 00:45:55;;;;;;;7.18;5.10;;;6.80;56.90;;;;;;4947028;29;20234;-82
2021/12/13 00:48:24;;;;;;;9.27;6.10;;;6.80;56.90;;;;;;4942970;29;20230;-80
2021/12/13 00:50:59;;;;;;;6.85;5.47;;;6.80;56.90;;;;;;4943897;29;20202;-83
2021/12/13 00:53:33;;;;;;;6.63;5.47;;;6.70;56.80;;;;;;4943004;29;20217;-82
2021/12/13 00:56:01;;;;;;;9.13;5.03;;;6.70;56.80;;;;;;4944158;29;20429;-82
2021/12/13 00:58:28;;;;;;;6.75;4.95;;;6.70;56.80;;;;;;4925581;29;20298;-83
2021/12/13 01:00:58;;;;;;;6.28;4.90;;;6.70;56.80;;;;;;4925299;29;20250;-81
2021/12/13 01:03:34;;;;;;;6.88;5.47;;;6.70;56.80;;;;;;4943035;29;20206;-82
2021/12/13 01:06:58;;;;;;;6.15;5.55;;;6.70;56.80;;;;;;4939663;29;20223;-81
2021/12/13 01:10:28;;;;;;;5.65;4.80;;;6.70;56.80;;;;;;4927464;29;20215;-80
2021/12/13 01:12:57;;;;;;;6.22;4.80;;;6.60;56.70;;;;;;4957183;28;20186;-76
2021/12/13 01:15:32;;;;;;;7.30;5.10;;;6.60;56.70;;;;;;4959105;28;20234;-78
2021/12/13 01:18:22;;;;;;;6.15;5.18;;;6.70;56.80;;;;;;4957673;28;20222;-80
2021/12/13 01:21:01;;;;;;;7.43;5.15;;;6.70;56.80;;;;;;4948283;29;20233;-81
2021/12/13 01:23:42;;;;;;;7.47;4.80;;;6.80;56.90;;;;;;4933298;29;20246;-80
2021/12/13 01:26:29;;;;;;;6.95;5.63;;;6.80;56.90;;;;;;4931064;29;20242;-80
2021/12/13 01:28:59;;;;;;;6.90;4.68;;;6.80;56.90;;;;;;4952495;28;20218;-80
2021/12/13 01:31:32;;;;;;;7.53;5.03;;;6.80;56.90;;;;;;4947534;29;20666;-81
2021/12/13 01:34:02;;;;;;;8.02;5.00;;;6.80;57.40;;;;;;4945664;29;20206;-81
2021/12/13 01:36:37;;;;;;;7.53;5.07;;;6.90;56.50;;;;;;4941714;29;20203;-82
2021/12/13 01:39:08;;;;;;;5.50;5.00;;;6.90;56.00;;;;;;4926605;29;20207;-82
2021/12/13 01:41:41;;;;;;;6.43;4.57;;;6.90;55.40;;;;;;4930694;29;20191;-81
2021/12/13 01:44:11;;;;;;;5.82;4.63;;;6.80;55.40;;;;;;4945888;29;20246;-81
2021/12/13 01:46:41;;;;;;;5.18;4.28;;;6.80;55.80;;;;;;4946824;29;20270;-79
2021/12/13 01:49:14;;;;;;;7.82;4.55;;;6.80;55.60;;;;;;4950830;29;20494;-82
2021/12/13 01:51:42;;;;;;;5.32;4.15;;;6.80;55.60;;;;;;4950557;29;20271;-81
2021/12/13 01:54:13;;;;;;;5.18;4.60;;;6.70;55.90;;;;;;4935851;29;20270;-83
2021/12/13 01:56:52;;;;;;;6.38;4.47;;;6.70;55.70;;;;;;4935782;29;20279;-81
2021/12/13 02:02:21;;;;;;;6.85;4.40;;;6.80;55.70;;;;;;4939435;28;20187;-77
2021/12/13 02:04:58;;;;;;;7.65;4.78;;;6.80;55.50;;;;;;4943168;28;20210;-78
2021/12/13 02:07:28;;;;;;;6.22;4.40;;;6.80;55.40;;;;;;4955442;28;20281;-82
2021/12/13 02:09:57;;;;;;;7.40;4.35;;;6.90;56.20;;;;;;4954309;29;20199;-81
2021/12/13 02:12:30;;;;;;;6.53;4.28;;;6.80;55.60;;;;;;4947542;28;20199;-79
2021/12/13 02:17:41;;;;;;;8.52;4.45;;;6.80;56.00;;;;;;4941933;28;20231;-80
2021/12/13 02:20:13;;;;;;;4.80;3.85;;;6.70;55.70;;;;;;4949359;28;20229;-80
2021/12/13 02:22:44;;;;;;;7.65;4.55;;;6.80;55.70;;;;;;4959801;29;20258;-82
2021/12/13 02:25:20;;;;;;;7.70;4.20;;;6.80;55.90;;;;;;4950278;28;20227;-79
2021/12/13 02:27:54;;;;;;;6.70;3.97;;;6.70;56.40;;;;;;4942727;28;20241;-79
2021/12/13 02:30:27;;;;;;;6.88;4.40;;;6.80;56.30;;;;;;4942753;28;20190;-78
2021/12/13 02:32:55;;;;;;;5.70;4.15;;;6.70;56.10;;;;;;4942374;28;20200;-79
2021/12/13 02:35:26;;;;;;;5.93;4.95;;;6.70;56.20;;;;;;4942926;28;20218;-77
2021/12/13 02:37:57;;;;;;;5.97;4.15;;;6.60;56.70;;;;;;4942345;28;20230;-79
2021/12/13 02:40:25;;;;;;;7.20;4.57;;;6.60;56.70;;;;;;4942308;28;20207;-80
2021/12/13 02:42:53;;;;;;;6.78;4.90;;;6.60;56.70;;;;;;4940530;28;20206;-82
2021/12/13 02:45:25;;;;;;;8.73;5.22;;;6.60;56.70;;;;;;4942319;29;20210;-81
2021/12/13 02:47:58;;;;;;;5.03;4.43;;;6.60;56.70;;;;;;4958772;29;20226;-82
2021/12/13 02:50:37;;;;;;;5.32;4.45;;;6.60;56.70;;;;;;4946525;29;20289;-82
2021/12/13 02:53:07;;;;;;;9.98;5.32;;;6.60;57.40;;;;;;4947006;29;20189;-81
2021/12/13 02:55:34;;;;;;;7.10;4.93;;;6.60;57.40;;;;;;4946727;29;20198;-84
2021/12/13 02:58:07;;;;;;;8.68;5.00;;;6.60;57.80;;;;;;4954852;28;20222;-82
2021/12/13 03:00:41;;;;;;;9.25;4.85;;;6.60;58.10;;;;;;4942499;29;20623;-82
2021/12/13 03:03:13;;;;;;;5.45;4.95;;;6.60;58.20;;;;;;4927421;29;20206;-81
2021/12/13 03:05:45;;;;;;;9.02;5.68;;;6.60;58.90;;;;;;4927180;29;20211;-81
2021/12/13 03:08:18;;;;;;;8.05;5.80;;;6.60;58.30;;;;;;4928124;29;20241;-83
2021/12/13 03:10:49;;;;;;;6.47;5.32;;;6.60;58.40;;;;;;4929248;29;20243;-82
2021/12/13 03:13:18;;;;;;;7.80;5.35;;;6.60;58.50;;;;;;4935634;29;20266;-82
2021/12/13 03:15:50;;;;;;;6.93;5.65;;;6.60;58.40;;;;;;4939805;29;20356;-82
2021/12/13 03:18:21;;;;;;;8.63;5.97;;;6.60;58.20;;;;;;4950701;29;20246;-81
2021/12/13 03:21:12;;;;;;;8.68;5.35;;;6.50;58.30;;;;;;4952346;29;20210;-83
2021/12/13 03:24:01;;;;;;;9.52;5.82;;;6.50;58.50;;;;;;4958166;28;20202;-82
2021/12/13 03:26:54;;;;;;;8.00;5.82;;;6.50;58.70;;;;;;4960332;28;20230;-78
2021/12/13 03:29:27;;;;;;;7.28;5.40;;;6.50;58.70;;;;;;4960232;28;20194;-81
2021/12/13 03:31:58;;;;;;;8.38;5.70;;;6.50;58.70;;;;;;4957630;28;20210;-83
2021/12/13 03:34:30;;;;;;;6.07;5.47;;;6.50;58.60;;;;;;4946681;29;20221;-81
2021/12/13 03:37:01;;;;;;;7.47;5.18;;;6.50;59.30;;;;;;4947959;29;20227;-80
2021/12/13 03:39:32;;;;;;;9.93;5.60;;;6.60;58.50;;;;;;4937318;29;20683;-80
2021/12/13 03:42:05;;;;;;;9.43;6.13;;;6.60;58.60;;;;;;4931312;29;20211;-82
2021/12/13 03:44:36;;;;;;;6.57;4.90;;;6.50;58.60;;;;;;4934919;29;20207;-80
2021/12/13 03:47:09;;;;;;;7.50;5.30;;;6.60;58.60;;;;;;4934211;29;20231;-80
2021/12/13 03:49:42;;;;;;;7.88;5.68;;;6.40;58.50;;;;;;4938406;28;20213;-79
2021/12/13 03:52:12;;;;;;;6.15;5.20;;;6.40;59.10;;;;;;4934557;29;20270;-80
2021/12/13 03:54:43;;;;;;;7.40;5.85;;;6.30;59.40;;;;;;4932616;29;20207;-81
2021/12/13 03:57:12;;;;;;;7.45;5.38;;;6.40;59.60;;;;;;4939219;29;20227;-82
2021/12/13 03:59:42;;;;;;;8.75;6.13;;;6.40;59.60;;;;;;4949538;29;20288;-80
2021/12/13 04:02:14;;;;;;;6.70;5.90;;;6.40;60.00;;;;;;4948103;29;20195;-81
2021/12/13 04:04:44;;;;;;;6.40;5.13;;;6.40;60.00;;;;;;4924826;29;20215;-80
2021/12/13 04:07:13;;;;;;;5.60;4.75;;;6.40;60.10;;;;;;4931912;29;20340;-81
2021/12/13 04:09:44;;;;;;;8.00;5.50;;;6.40;60.00;;;;;;4943723;29;20222;-81
2021/12/13 04:12:14;;;;;;;6.93;5.85;;;6.50;60.00;;;;;;4939252;29;20214;-82
2021/12/13 04:14:52;;;;;;;6.35;4.97;;;6.40;60.00;;;;;;4933951;29;20656;-82
2021/12/13 04:17:36;;;;;;;7.03;5.55;;;6.50;60.00;;;;;;4933251;29;20257;-82
2021/12/13 04:20:07;;;;;;;6.47;5.07;;;6.50;60.00;;;;;;4933591;29;20259;-82
2021/12/13 04:22:37;;;;;;;6.47;4.90;;;6.50;60.00;;;;;;4930444;29;20288;-81
2021/12/13 04:25:10;;;;;;;5.53;5.00;;;6.50;60.00;;;;;;4926712;29;20218;-82
2021/12/13 04:27:41;;;;;;;6.38;4.82;;;6.50;60.30;;;;;;4933949;29;20274;-79
2021/12/13 04:30:17;;;;;;;7.40;4.40;;;6.50;61.60;;;;;;4934829;29;20199;-81
2021/12/13 04:32:47;;;;;;;6.13;5.03;;;6.50;61.20;;;;;;4923073;29;20218;-80
2021/12/13 04:35:15;;;;;;;6.03;4.95;;;6.40;61.50;;;;;;4923610;29;20231;-81
2021/12/13 04:37:46;;;;;;;7.47;4.70;;;6.40;61.90;;;;;;4925276;29;20227;-82
2021/12/13 04:40:17;;;;;;;4.93;4.45;;;6.40;62.10;;;;;;4932683;29;20229;-81
2021/12/13 04:42:45;;;;;;;5.38;4.82;;;6.40;62.00;;;;;;4947492;29;20211;-80
2021/12/13 04:45:15;;;;;;;7.15;4.70;;;6.40;62.00;;;;;;4945347;29;20407;-81
2021/12/13 04:47:49;;;;;;;9.60;5.03;;;6.40;61.90;;;;;;4938411;29;20238;-82
2021/12/13 04:50:21;;;;;;;6.50;4.65;;;6.40;62.10;;;;;;4938569;28;20254;-81
2021/12/13 04:52:49;;;;;;;5.53;4.85;;;6.40;61.90;;;;;;4939288;28;20237;-77
2021/12/13 04:55:23;;;;;;;7.57;4.80;;;6.30;61.70;;;;;;4939645;28;20222;-79
2021/12/13 04:57:53;;;;;;;11.02;4.97;;;6.30;61.70;;;;;;4940068;28;20226;-79
2021/12/13 05:00:23;;;;;;;7.57;5.20;;;6.30;61.50;;;;;;4939752;28;20199;-80
2021/12/13 05:02:56;;;;;;;7.30;5.90;;;6.30;61.00;;;;;;4938806;28;20251;-81
2021/12/13 05:05:23;;;;;;;6.63;4.95;;;6.30;61.00;;;;;;4936978;29;20222;-79
2021/12/13 05:07:53;;;;;;;6.55;4.72;;;6.40;60.90;;;;;;4934854;29;20247;-81
2021/12/13 05:10:25;;;;;;;4.82;4.32;;;6.40;61.50;;;;;;4938966;29;20234;-80
2021/12/13 05:13:07;;;;;;;6.18;5.25;;;6.40;61.10;;;;;;4953405;29;20242;-83
2021/12/13 05:15:37;;;;;;;6.55;5.07;;;6.40;60.80;;;;;;4953910;29;20269;-82
2021/12/13 05:18:11;;;;;;;5.85;4.72;;;6.40;60.50;;;;;;4949346;29;20354;-81
2021/12/13 05:20:44;;;;;;;8.15;4.70;;;6.50;60.30;;;;;;4933971;29;20210;-81
2021/12/13 05:23:15;;;;;;;6.68;5.18;;;6.50;59.80;;;;;;4939194;29;20297;-81
2021/12/13 05:25:51;;;;;;;6.30;4.90;;;6.50;59.80;;;;;;4952138;29;20262;-82
2021/12/13 05:28:20;;;;;;;6.45;5.20;;;6.50;60.00;;;;;;4943469;29;20320;-82
2021/12/13 05:30:54;;;;;;;7.13;4.97;;;6.50;60.10;;;;;;4929806;29;20255;-82
2021/12/13 05:33:23;;;;;;;9.32;5.20;;;6.50;60.20;;;;;;4936423;29;20317;-82
2021/12/13 05:35:53;;;;;;;8.45;4.35;;;6.40;60.20;;;;;;4951554;29;20218;-82
2021/12/13 05:38:28;;;;;;;5.90;4.75;;;6.40;60.20;;;;;;4951161;29;20240;-81
2021/12/13 05:41:03;;;;;;;6.88;4.90;;;6.40;60.00;;;;;;4954142;29;20273;-81
2021/12/13 05:43:33;;;;;;;7.95;4.80;;;6.40;60.00;;;;;;4957706;28;20194;-79
2021/12/13 05:46:05;;;;;;;6.47;5.30;;;6.40;60.20;;;;;;4955618;28;20203;-80
2021/12/13 05:48:47;;;;;;;11.63;4.85;;;6.40;60.30;;;;;;4936835;29;20248;-80
2021/12/13 05:51:28;;;;;;;6.90;5.18;;;6.40;60.20;;;;;;4937158;29;20273;-82
2021/12/13 05:54:05;;;;;;;9.15;5.07;;;6.30;60.30;;;;;;4952932;29;20211;-78
2021/12/13 05:56:40;;;;;;;6.95;4.70;;;6.20;60.90;;;;;;4953519;29;20306;-80
2021/12/13 05:59:17;;;;;;;5.85;4.30;;;6.10;60.80;;;;;;4954796;29;20202;-80
2021/12/13 06:02:06;;;;;;;6.35;5.13;;;6.10;61.40;;;;;;4938477;29;20214;-81
2021/12/13 06:04:40;;;;;;;6.20;4.60;;;6.00;61.30;;;;;;4932528;29;20216;-79
2021/12/13 06:07:19;;;;;;;6.18;4.88;;;6.00;61.80;;;;;;4948376;29;20225;-80
2021/12/13 06:09:59;;;;;;;6.78;4.50;;;6.10;62.00;;;;;;4951418;29;20175;-79
2021/12/13 06:12:49;;;;;;;5.68;4.20;;;6.10;62.00;;;;;;4956103;28;20332;-79
2021/12/13 06:15:24;;;;;;;4.57;3.67;;;6.10;62.10;;;;;;4954389;29;20211;-81
2021/12/13 06:17:57;;;;;;;5.35;4.78;;;6.20;62.30;;;;;;4955506;29;20230;-79
2021/12/13 06:20:28;;;;;;;5.53;4.88;;;6.20;61.80;;;;;;4955034;29;20207;-82
2021/12/13 06:23:05;;;;;;;5.18;4.57;;;6.40;61.80;;;;;;4954293;29;20234;-82
2021/12/13 06:25:32;;;;;;;4.43;3.75;;;6.50;61.10;;;;;;4953840;29;20235;-79
2021/12/13 06:28:01;;;;;;;7.65;4.90;;;6.50;61.10;;;;;;4953971;29;20254;-81
2021/12/13 06:30:29;;;;;;;6.47;4.40;;;6.40;60.90;;;;;;4954702;29;20333;-79
2021/12/13 06:32:59;;;;;;;4.63;4.13;;;6.50;61.10;;;;;;4955924;29;20206;-79
2021/12/13 06:35:42;;;;;;;5.47;4.32;;;6.50;61.10;;;;;;4956956;29;20270;-80
2021/12/13 06:38:42;;;;;;;4.97;4.47;;;6.60;61.20;;;;;;4940394;28;20223;-79
2021/12/13 06:41:31;;;;;;;5.03;4.32;;;6.60;60.80;;;;;;4941729;29;20210;-81
2021/12/13 06:44:01;;;;;;;6.18;4.07;;;6.60;61.00;;;;;;4957208;29;20210;-82
2021/12/13 06:46:42;;;;;;;8.05;4.40;;;6.60;61.20;;;;;;4956639;29;20214;-84
2021/12/13 06:49:28;;;;;;;6.78;4.45;;;6.60;61.00;;;;;;4958864;29;20218;-80
2021/12/13 06:51:59;;;;;;;6.93;4.55;;;6.60;60.90;;;;;;4958062;29;20218;-80
2021/12/13 06:54:32;;;;;;;11.35;4.72;;;6.60;61.00;;;;;;4959492;29;20215;-81
2021/12/13 06:57:02;;;;;;;6.53;4.30;;;6.60;60.90;;;;;;4937984;29;20257;-80
2021/12/13 06:59:34;;;;;;;11.07;5.00;;;6.60;61.00;;;;;;4937000;29;20251;-79
2021/12/13 07:02:17;;;;;;;6.88;4.28;;;6.60;61.20;;;;;;4952412;29;20274;-80
2021/12/13 07:05:01;;;;;;;5.90;4.65;;;6.70;61.20;;;;;;4936763;29;20270;-81
2021/12/13 07:07:33;;;;;;;6.95;4.63;;;6.70;61.30;;;;;;4932095;29;20246;-81
2021/12/13 07:10:05;;;;;;;7.93;4.72;;;6.70;61.10;;;;;;4932937;29;20202;-79
2021/12/13 07:12:32;;;;;;;10.93;5.20;;;6.70;61.00;;;;;;4934385;29;20223;-79
2021/12/13 07:15:03;;;;;;;7.30;5.03;;;6.70;61.30;;;;;;4941798;28;20246;-81
2021/12/13 07:17:33;;;;;;;8.20;4.35;;;6.60;61.20;;;;;;4935523;29;20294;-81
2021/12/13 07:20:02;;;;;;;7.95;4.70;;;6.60;61.20;;;;;;4955527;29;20217;-81
2021/12/13 07:22:31;;;;;;;8.55;5.20;;;6.60;61.50;;;;;;4954875;28;20453;-82
2021/12/13 07:25:08;;;;;;;8.07;4.32;;;6.60;61.70;;;;;;4940385;29;20211;-82
2021/12/13 07:27:41;;;;;;;9.35;5.07;;;6.60;62.00;;;;;;4934406;29;20257;-81
2021/12/13 07:30:16;;;;;;;6.15;4.95;;;6.70;61.80;;;;;;4949988;29;20213;-80
2021/12/13 07:32:50;;;;;;;7.75;4.60;;;6.60;62.00;;;;;;4937998;29;20203;-81
2021/12/13 07:35:20;;;;;;;6.15;5.53;;;6.60;62.30;;;;;;4947174;29;20359;-81
2021/12/13 07:37:51;;;;;;;9.68;5.68;;;6.60;62.50;;;;;;4957121;29;20290;-82
2021/12/13 07:40:43;;;;;;;7.57;5.55;;;6.60;62.30;;;;;;4942880;29;20194;-82
2021/12/13 07:43:18;;;;;;;12.20;5.97;;;6.70;61.90;;;;;;4946801;29;20214;-80
2021/12/13 07:45:59;;;;;;;10.68;6.68;;;6.70;61.80;;;;;;4956357;29;20257;-82
2021/12/13 07:48:30;;;;;;;9.73;6.88;;;6.70;61.60;;;;;;4937416;29;20266;-81
2021/12/13 07:51:06;;;;;;;7.60;5.28;;;6.80;61.40;;;;;;4943430;29;20282;-83
2021/12/13 07:53:45;;;;;;;10.35;6.55;;;6.90;61.70;;;;;;4959086;28;20294;-82
2021/12/13 07:56:19;;;;;;;8.02;6.57;;;6.90;61.50;;;;;;4959916;28;20258;-78
2021/12/13 07:58:50;;;;;;;9.50;6.60;;;7.00;61.60;;;;;;4958777;28;20210;-75
2021/12/13 08:01:22;;;;;;;8.38;6.28;;;7.00;61.60;;;;;;4958261;28;20191;-76
2021/12/13 08:03:56;;;;;;;10.50;6.70;;;7.00;61.60;;;;;;4955426;28;20230;-78
2021/12/13 08:06:26;;;;;;;7.72;6.65;;;7.10;61.60;;;;;;4946387;29;20261;-79
2021/12/13 08:08:57;;;;;;;7.40;6.50;;;7.10;61.60;;;;;;4942523;29;20245;-79
2021/12/13 08:11:46;;;;;;;10.70;6.72;;;7.10;61.60;;;;;;4942356;29;20206;-79
2021/12/13 08:14:15;;;;;;;12.30;7.55;;;7.10;61.70;;;;;;4942148;29;20207;-79
2021/12/13 08:16:49;;;;;;;9.27;7.03;;;7.10;61.60;;;;;;4945077;29;20277;-77
2021/12/13 08:19:21;;;;;;;12.57;7.20;;;7.10;62.00;;;;;;4935963;29;20238;-79
2021/12/13 08:21:52;;;;;;;10.18;6.80;;;7.20;61.70;;;;;;4932936;29;20271;-79
2021/12/13 08:24:28;;;;;;;8.30;7.03;;;7.20;61.70;;;;;;4939647;29;20211;-77
2021/12/13 08:27:02;;;;;;;10.95;7.43;;;7.20;61.80;;;;;;4943599;29;20233;-78
2021/12/13 08:29:32;;;;;;;11.05;7.40;;;7.30;61.80;;;;;;4943343;29;20294;-77
2021/12/13 08:32:04;;;;;;;11.00;7.43;;;7.40;61.60;;;;;;4942036;29;20559;-78
2021/12/13 08:34:34;;;;;;;11.10;7.93;;;7.40;61.90;;;;;;4938998;29;20666;-77
2021/12/13 08:37:10;;;;;;;11.60;7.43;;;7.50;62.00;;;;;;4939154;29;20235;-78
2021/12/13 08:39:38;;;;;;;9.98;7.35;;;7.50;61.80;;;;;;4925409;29;20271;-76
2021/12/13 08:42:10;;;;;;;11.10;7.65;;;7.50;62.00;;;;;;4920965;29;20203;-75
2021/12/13 08:44:40;;;;;;;10.60;6.68;;;7.60;61.60;;;;;;4937540;29;20213;-78
2021/12/13 08:47:12;;;;;;;10.65;6.80;;;7.70;61.10;;;;;;4946152;29;20222;-77
2021/12/13 08:49:44;;;;;;;9.45;6.95;;;7.70;61.00;;;;;;4946049;29;20223;-78
2021/12/13 08:52:25;;;;;;;11.90;7.40;;;7.70;61.00;;;;;;4926897;29;20219;-79
2021/12/13 08:54:57;;;;;;;17.98;8.82;;;7.60;60.40;;;;;;4925534;29;20203;-78
2021/12/13 08:57:34;;;;;;;8.35;7.07;;;7.70;60.90;;;;;;4924512;29;20230;-76
2021/12/13 09:00:07;;;;;;;11.32;7.40;;;7.70;61.20;;;;;;4940496;29;20206;-78
2021/12/13 09:02:40;;;;;;;10.90;8.00;;;7.80;61.30;;;;;;4941766;29;20231;-77
2021/12/13 09:05:14;;;;;;;8.68;6.88;;;7.70;61.80;;;;;;4941554;29;20213;-77
2021/12/13 09:07:49;;;;;;;13.02;8.32;;;7.80;62.20;;;;;;4950087;29;20218;-77
2021/12/13 09:10:16;;;;;;;14.02;8.00;;;7.90;62.30;;;;;;4953181;29;20214;-79
2021/12/13 09:12:46;;;;;;;11.30;7.68;;;8.10;62.50;;;;;;4947076;29;20668;-77
2021/12/13 09:15:22;;;;;;;14.00;7.82;;;8.10;62.50;;;;;;4946410;29;20216;-78
2021/12/13 09:17:52;;;;;;;10.80;8.10;;;8.10;62.50;;;;;;4953022;29;20226;-81
2021/12/13 09:20:23;;;;;;;12.75;8.40;;;8.20;63.00;;;;;;4935850;29;20247;-80
2021/12/13 09:22:54;;;;;;;15.93;9.05;;;8.30;63.10;;;;;;4937240;29;20203;-80
2021/12/13 09:25:31;;;;;;;8.82;7.47;;;8.30;63.00;;;;;;4952115;29;20214;-77
2021/12/13 09:28:01;;;;;;;9.63;6.72;;;8.40;62.80;;;;;;4944948;29;20282;-77
2021/12/13 09:30:39;;;;;;;10.63;8.05;;;8.50;61.80;;;;;;4953056;29;20242;-80
2021/12/13 09:33:25;;;;;;;10.13;7.03;;;8.50;61.50;;;;;;4955613;29;20217;-81
2021/12/13 09:35:56;;;;;;;8.40;6.63;;;8.50;61.40;;;;;;4956826;28;20209;-80
2021/12/13 09:38:33;;;;;;;8.52;5.97;;;8.50;60.90;;;;;;4957484;29;20263;-76
2021/12/13 09:41:07;;;;;;;10.63;6.57;;;8.50;61.00;;;;;;4956531;28;20202;-78
2021/12/13 09:43:46;;;;;;;8.85;6.47;;;8.50;60.80;;;;;;4957401;28;20197;-78
2021/12/13 09:46:19;;;;;;;13.90;6.93;;;8.60;60.30;;;;;;4947212;29;20414;-77
2021/12/13 09:48:51;;;;;;;13.43;6.40;;;8.70;60.00;;;;;;4939015;29;20335;-77
2021/12/13 09:51:23;;;;;;;10.05;5.50;;;8.50;60.10;;;;;;4938624;29;20427;-77
2021/12/13 09:53:53;;;;;;;7.22;6.25;;;8.60;60.10;;;;;;4939196;29;20245;-79
2021/12/13 09:56:23;;;;;;;8.57;5.93;;;8.50;60.40;;;;;;4938489;29;20545;-78
2021/12/13 09:58:54;;;;;;;7.90;5.68;;;8.70;60.30;;;;;;4940131;29;20237;-78
2021/12/13 10:01:30;;;;;;;8.43;6.15;;;8.70;60.20;;;;;;4943675;29;20233;-79
2021/12/13 10:04:05;;;;;;;7.18;5.28;;;8.80;59.60;;;;;;4948243;29;20229;-78
2021/12/13 10:06:36;;;;;;;9.43;5.25;;;8.70;59.90;;;;;;4942436;29;20265;-79
2021/12/13 10:09:08;;;;;;;11.02;7.45;;;8.80;60.60;;;;;;4949877;29;20285;-76
2021/12/13 10:11:39;;;;;;;7.00;5.03;;;9.00;60.10;;;;;;4958496;28;20270;-79
2021/12/13 10:14:09;;;;;;;12.32;5.80;;;9.10;58.90;;;;;;4950329;28;20196;-75
2021/12/13 10:16:39;;;;;;;6.88;5.40;;;9.10;58.90;;;;;;4938764;29;20203;-77
2021/12/13 10:19:12;;;;;;;8.30;5.70;;;9.10;58.90;;;;;;4947656;29;20206;-76
2021/12/13 10:21:43;;;;;;;7.43;4.95;;;8.90;58.80;;;;;;4943582;29;20207;-80
2021/12/13 10:24:15;;;;;;;11.93;6.03;;;8.70;61.00;;;;;;4934973;29;20214;-80
2021/12/13 10:26:45;;;;;;;11.70;6.18;;;8.60;62.50;;;;;;4939736;29;20222;-77
2021/12/13 10:29:15;;;;;;;10.68;6.22;;;8.50;63.10;;;;;;4997449;23;20351;-81
2021/12/13 10:31:48;;;;;;;7.05;4.90;;;8.40;63.20;;;;;;4979492;28;20293;-81
2021/12/13 10:34:19;;;;;;;6.85;5.45;;;8.30;64.50;;;;;;4967907;28;20282;-81
2021/12/13 10:36:50;;;;;;;7.72;5.03;;;8.50;64.80;;;;;;4974992;28;20232;-80
2021/12/13 10:39:20;;;;;;;6.82;6.00;;;8.80;64.20;;;;;;4985068;28;20225;-79
2021/12/13 10:41:50;;;;;;;11.20;6.22;;;8.50;63.30;;;;;;4984434;28;20626;-81
2021/12/13 10:44:25;;;;;;;11.32;6.20;;;8.60;63.60;;;;;;4994101;28;20273;-78
2021/12/13 10:46:55;;;;;;;8.55;5.40;;;8.50;64.00;;;;;;4984951;28;20211;-81
2021/12/13 10:49:27;;;;;;;9.65;5.50;;;9.00;64.20;;;;;;4983446;28;20233;-80
2021/12/13 10:51:57;;;;;;;6.65;5.00;;;9.40;62.10;;;;;;4983767;28;20365;-80
2021/12/13 10:54:30;;;;;;;6.63;4.30;;;9.70;60.50;;;;;;4967598;28;20281;-80
2021/12/13 10:57:00;;;;;;;8.20;5.50;;;9.90;60.30;;;;;;4960950;29;20261;-79
2021/12/13 10:59:32;;;;;;;5.40;4.82;;;10.10;58.80;;;;;;4975494;28;20253;-77
2021/12/13 11:02:04;;;;;;;5.88;5.28;;;10.10;57.90;;;;;;4982333;28;20273;-78
2021/12/13 11:04:37;;;;;;;8.57;4.65;;;10.10;58.40;;;;;;4982077;28;20266;-81
2021/12/13 11:07:06;;;;;;;6.95;5.43;;;10.00;58.70;;;;;;4970195;28;20221;-81
2021/12/13 11:09:37;;;;;;;6.72;5.35;;;9.80;59.50;;;;;;4972201;28;20230;-81
2021/12/13 11:12:16;;;;;;;4.88;4.15;;;9.70;59.40;;;;;;4989387;28;20233;-79
2021/12/13 11:14:45;;;;;;;8.27;4.25;;;9.40;60.70;;;;;;4991777;28;20747;-81
2021/12/13 11:17:15;;;;;;;6.53;5.53;;;9.70;60.40;;;;;;4983862;28;20620;-79
2021/12/13 11:19:48;;;;;;;7.60;4.20;;;9.80;59.50;;;;;;4982302;28;20216;-80
2021/12/13 11:22:18;;;;;;;5.65;5.05;;;9.80;59.50;;;;;;4973665;28;20202;-78
2021/12/13 11:24:49;;;;;;;7.43;5.13;;;9.80;59.50;;;;;;4978212;28;20194;-79
2021/12/13 11:27:20;;;;;;;6.88;4.70;;;9.70;59.50;;;;;;4990103;28;20193;-78
2021/12/13 11:29:48;;;;;;;4.80;4.30;;;9.60;61.20;;;;;;4996888;28;20225;-82
2021/12/13 11:32:45;;;;;;;5.95;4.70;;;9.50;62.40;;;;;;4994948;28;20276;-79
2021/12/13 11:35:52;;;;;;;8.63;4.90;;;9.50;62.90;;;;;;4991697;28;20217;-81
2021/12/13 11:38:38;;;;;;;7.20;4.60;;;9.50;62.60;;;;;;4976208;28;20210;-77
2021/12/13 11:41:49;;;;;;;6.70;4.30;;;9.60;63.30;;;;;;4979151;28;20202;-80
2021/12/13 11:44:35;;;;;;;4.80;4.25;;;9.50;63.40;;;;;;4983361;28;20209;-76
2021/12/13 11:47:35;;;;;;;4.60;3.88;;;9.90;63.20;;;;;;4996915;28;20208;-81
2021/12/13 11:50:41;;;;;;;6.75;4.53;;;10.10;61.00;;;;;;4988514;28;20296;-80
2021/12/13 11:53:46;;;;;;;6.57;4.63;;;10.10;60.90;;;;;;4990092;28;20213;-79
2021/12/13 11:56:46;;;;;;;5.28;3.80;;;10.20;60.80;;;;;;4961409;28;20224;-79
2021/12/13 11:59:51;;;;;;;6.07;4.13;;;10.20;60.40;;;;;;4977053;28;20236;-81
2021/12/13 12:02:30;;;;;;;5.90;4.30;;;9.80;63.70;;;;;;4996560;28;20204;-79
2021/12/13 12:05:48;;;;;;;5.03;3.92;;;9.70;63.20;;;;;;4978161;28;20214;-80
2021/12/13 12:08:44;;;;;;;9.13;4.55;;;9.80;62.80;;;;;;4969169;28;20355;-79
2021/12/13 12:11:33;;;;;;;7.50;4.30;;;9.80;63.70;;;;;;4961308;29;20246;-80
2021/12/13 12:14:05;;;;;;;8.90;4.65;;;9.90;62.70;;;;;;4986745;28;20299;-79
2021/12/13 12:16:36;;;;;;;5.15;4.70;;;9.90;62.40;;;;;;4997545;28;20276;-80
2021/12/13 12:19:05;;;;;;;4.75;4.28;;;10.00;60.90;;;;;;4994058;28;20328;-77
2021/12/13 12:21:55;;;;;;;8.05;5.32;;;10.00;60.30;;;;;;4985010;28;20201;-78
2021/12/13 12:24:26;;;;;;;6.45;4.38;;;10.00;60.40;;;;;;4974075;28;20614;-77
2021/12/13 12:27:00;;;;;;;5.93;4.55;;;9.60;62.90;;;;;;4979845;28;20276;-79
2021/12/13 12:29:30;;;;;;;6.30;5.22;;;9.60;63.70;;;;;;4979044;28;20256;-81
2021/12/13 12:32:01;;;;;;;6.97;4.57;;;9.60;63.10;;;;;;4979122;28;20209;-80
2021/12/13 12:34:29;;;;;;;7.38;4.80;;;9.70;63.50;;;;;;4978858;28;20552;-81
2021/12/13 12:37:16;;;;;;;7.15;4.30;;;9.80;62.70;;;;;;4979134;28;20323;-79
2021/12/13 12:39:57;;;;;;;6.20;4.95;;;9.90;62.30;;;;;;4978550;28;20236;-79
2021/12/13 12:42:32;;;;;;;5.65;4.35;;;9.90;62.40;;;;;;4979239;28;20228;-81
2021/12/13 12:45:18;;;;;;;5.35;4.10;;;10.00;61.60;;;;;;4978872;28;20223;-78
2021/12/13 12:48:18;;;;;;;5.40;4.45;;;9.90;62.80;;;;;;4979446;28;20224;-79
2021/12/13 12:51:00;;;;;;;6.40;4.43;;;10.10;61.90;;;;;;4968386;28;20256;-80
2021/12/13 12:53:40;;;;;;;8.70;4.25;;;10.10;62.00;;;;;;4979958;28;20272;-80
2021/12/13 12:56:12;;;;;;;5.40;4.38;;;10.20;61.80;;;;;;4969752;28;20294;-80
2021/12/13 12:58:49;;;;;;;6.05;4.32;;;10.20;61.20;;;;;;4989906;28;20280;-78
2021/12/13 13:01:23;;;;;;;7.65;4.32;;;10.10;61.20;;;;;;4983580;28;20202;-77
2021/12/13 13:03:52;;;;;;;7.55;3.90;;;10.20;61.40;;;;;;4993125;28;20256;-76
2021/12/13 13:06:22;;;;;;;7.60;3.78;;;10.30;61.10;;;;;;4995579;28;20216;-75
2021/12/13 13:08:54;;;;;;;6.28;4.07;;;10.20;61.80;;;;;;4992726;28;20304;-79
2021/12/13 13:11:31;;;;;;;4.00;3.60;;;10.30;61.70;;;;;;4983297;28;20213;-80
2021/12/13 13:14:11;;;;;;;7.03;3.97;;;10.30;60.90;;;;;;4984277;28;20205;-80
2021/12/13 13:16:43;;;;;;;7.85;3.67;;;10.40;60.30;;;;;;4988473;28;20213;-80
2021/12/13 13:19:22;;;;;;;4.55;3.70;;;10.10;61.40;;;;;;4994169;28;20249;-80
2021/12/13 13:21:50;;;;;;;5.47;4.20;;;10.20;61.90;;;;;;4977793;28;20208;-79
2021/12/13 13:24:19;;;;;;;8.70;4.45;;;10.30;61.20;;;;;;4987384;28;20189;-80
2021/12/13 13:26:48;;;;;;;7.82;4.70;;;10.10;61.40;;;;;;4996990;28;20189;-83
2021/12/13 13:29:20;;;;;;;6.50;4.90;;;10.10;61.50;;;;;;4996520;28;20240;-78
2021/12/13 13:31:50;;;;;;;6.15;5.15;;;10.10;61.90;;;;;;4995059;28;20256;-84
2021/12/13 13:34:20;;;;;;;8.75;5.05;;;10.30;61.80;;;;;;4981791;28;20198;-82
2021/12/13 13:36:49;;;;;;;8.63;5.30;;;10.40;60.80;;;;;;4963770;29;20779;-80
2021/12/13 13:39:22;;;;;;;6.55;4.93;;;10.40;60.70;;;;;;4962734;28;20265;-82